Terminal Aerodrome Forecast
Issued by NWS Charleston, WV

Current Version | Previous Version | Graphics & Text | Print | Product List | Glossary On
Versions: 1 2 3 4 5 6 7 8 9 10 11 12 13 14 15 16 17 18 19 20 21 22 23 24 25 26
000
FTUS41 KRLX 051739
TAFEKN
TAF
KEKN 051739Z 0518/0618 VRB05KT P6SM BKN080
      TEMPO 0518/0520 3SM TSRA OVC025CB
     FM060000 00000KT 4SM SHRA VCTS OVC030CB
     FM060300 00000KT 3SM SHRA OVC025
     FM060700 07001KT 2SM BR OVC015
     FM060800 00000KT 1/4SM FG OVC004
     FM061300 00000KT 2SM BR OVC008
     FM061400 14001KT 6SM HZ OVC015
     FM061700 27002KT 4SM SHRA OVC025=

USA.gov is the U.S. government's official web portal to all federal, state and local government web resources and services.